Time;durP1;ratioP1;P1;durP2;ratioP2;P2;SDS_P1;SDS_P2;PMS_P1;PMS_P2;Temp;Humidity;BMP_temperature;BMP_pressure;BME280_temperature;BME280_humidity;BME280_pressure;Samples;Min_cycle;Max_cycle;Signal;HPM_P1;HPM_P2
2023/11/21 00:07:10;;;;;;;1.23;0.90;;;7.80;93.20;;;;;;4627160;31;20101;-77
2023/11/21 00:09:36;;;;;;;1.17;0.88;;;7.80;93.20;;;;;;4629476;31;20043;-77
2023/11/21 00:12:03;;;;;;;1.85;1.10;;;7.80;93.20;;;;;;4646188;30;20054;-77
2023/11/21 00:14:28;;;;;;;1.90;1.08;;;7.80;93.30;;;;;;4663265;30;20474;-77
2023/11/21 00:16:54;;;;;;;1.45;1.10;;;7.80;93.30;;;;;;4663113;30;20141;-77
2023/11/21 00:19:20;;;;;;;1.08;0.75;;;7.80;93.30;;;;;;4663426;30;20050;-77
2023/11/21 00:21:46;;;;;;;1.67;1.20;;;7.80;93.30;;;;;;4662780;30;20503;-78
2023/11/21 00:24:13;;;;;;;2.60;1.23;;;7.80;93.30;;;;;;4717717;30;20051;-77
2023/11/21 00:26:40;;;;;;;2.30;1.20;;;7.80;93.30;;;;;;4771033;30;20109;-77
2023/11/21 00:29:08;;;;;;;2.20;1.30;;;7.80;93.30;;;;;;4806353;29;20073;-77
2023/11/21 00:31:36;;;;;;;2.42;1.30;;;7.80;93.30;;;;;;4790375;29;20446;-77
2023/11/21 00:34:05;;;;;;;2.45;1.30;;;7.80;93.30;;;;;;4823708;29;20121;-77
2023/11/21 00:36:32;;;;;;;2.35;1.35;;;7.70;93.30;;;;;;4806260;29;20046;-77
2023/11/21 00:38:58;;;;;;;2.13;1.08;;;7.70;93.30;;;;;;4791954;29;20061;-77
2023/11/21 00:41:23;;;;;;;2.00;1.20;;;7.70;93.30;;;;;;4806271;29;20050;-77
2023/11/21 00:43:49;;;;;;;1.52;1.00;;;7.70;93.30;;;;;;4823424;29;20053;-77
2023/11/21 00:46:15;;;;;;;2.63;1.20;;;7.60;93.30;;;;;;4822609;29;20074;-77
2023/11/21 00:48:40;;;;;;;2.35;1.30;;;7.60;93.30;;;;;;4806161;29;20039;-77
2023/11/21 00:51:06;;;;;;;2.75;1.33;;;7.70;93.30;;;;;;4822674;29;20033;-77
2023/11/21 00:53:32;;;;;;;3.60;1.40;;;7.60;93.30;;;;;;4823521;29;20080;-77
2023/11/21 00:55:58;;;;;;;1.65;1.23;;;7.60;93.30;;;;;;4791731;29;20061;-77
2023/11/21 00:58:24;;;;;;;1.58;1.05;;;7.50;93.30;;;;;;4823260;29;20046;-77
2023/11/21 01:00:50;;;;;;;2.90;1.40;;;7.60;93.40;;;;;;4805976;29;20043;-78
2023/11/21 01:03:16;;;;;;;1.38;0.98;;;7.50;93.40;;;;;;4822407;29;20141;-77
2023/11/21 01:05:42;;;;;;;2.53;1.33;;;7.50;93.40;;;;;;4823060;29;20164;-77
2023/11/21 01:08:07;;;;;;;2.08;1.40;;;7.50;93.40;;;;;;4806338;29;20058;-77
2023/11/21 01:10:34;;;;;;;1.45;1.10;;;7.60;93.40;;;;;;4822805;29;20439;-77
2023/11/21 01:13:00;;;;;;;2.05;1.35;;;7.60;93.40;;;;;;4823067;29;20134;-77
2023/11/21 01:15:26;;;;;;;1.98;1.20;;;7.60;93.40;;;;;;4822371;29;20042;-77
2023/11/21 01:17:52;;;;;;;1.98;1.13;;;7.60;93.30;;;;;;4806385;29;20046;-77
2023/11/21 01:20:18;;;;;;;2.10;1.25;;;7.60;93.30;;;;;;4822637;29;20039;-77
2023/11/21 01:22:44;;;;;;;1.98;0.90;;;7.70;93.30;;;;;;4790063;29;20039;-77
2023/11/21 01:25:10;;;;;;;1.92;1.20;;;7.60;93.30;;;;;;4805919;29;20086;-77
2023/11/21 01:27:37;;;;;;;1.83;1.17;;;7.70;93.30;;;;;;4805813;29;20490;-77
2023/11/21 01:30:04;;;;;;;2.58;1.30;;;7.70;93.30;;;;;;4822318;29;20062;-77
2023/11/21 01:32:30;;;;;;;1.40;1.00;;;7.70;93.30;;;;;;4805924;29;20042;-77
2023/11/21 01:34:55;;;;;;;1.73;1.15;;;7.70;93.30;;;;;;4806069;29;20118;-77
2023/11/21 01:37:21;;;;;;;1.92;1.30;;;7.70;93.20;;;;;;4805725;29;20038;-77
2023/11/21 01:39:48;;;;;;;2.08;1.20;;;7.80;93.30;;;;;;4805774;29;20824;-77
2023/11/21 01:42:14;;;;;;;1.60;1.00;;;7.80;93.20;;;;;;4805699;29;20062;-78
2023/11/21 01:44:39;;;;;;;1.52;1.10;;;7.80;93.20;;;;;;4805721;29;20047;-77
2023/11/21 01:47:07;;;;;;;2.92;1.35;;;7.80;93.20;;;;;;4823151;29;20478;-77
2023/11/21 01:49:33;;;;;;;2.90;1.40;;;7.90;93.20;;;;;;4825682;29;20050;-77
2023/11/21 01:52:00;;;;;;;3.45;1.65;;;7.90;93.20;;;;;;4825091;29;20052;-77
2023/11/21 01:54:26;;;;;;;2.25;1.40;;;7.90;93.10;;;;;;4825400;29;20049;-77
2023/11/21 01:56:52;;;;;;;1.92;1.30;;;7.90;93.10;;;;;;4825294;29;20410;-77
2023/11/21 01:59:22;;;;;;;2.20;1.13;;;8.00;93.10;;;;;;4824853;29;20046;-77
2023/11/21 02:01:50;;;;;;;2.15;1.30;;;8.00;93.10;;;;;;4793029;29;20489;-77
2023/11/21 02:04:16;;;;;;;3.03;1.45;;;8.00;93.10;;;;;;4825078;29;20079;-77
2023/11/21 02:06:42;;;;;;;2.58;1.30;;;8.00;93.10;;;;;;4825230;29;20042;-77
2023/11/21 02:09:08;;;;;;;3.88;1.48;;;8.10;93.10;;;;;;4793304;29;20053;-77
2023/11/21 02:11:34;;;;;;;3.35;1.30;;;8.00;93.10;;;;;;4825219;29;20042;-77
2023/11/21 02:14:00;;;;;;;2.72;1.52;;;8.00;93.10;;;;;;4824949;29;20043;-77
2023/11/21 02:16:27;;;;;;;3.42;1.58;;;8.10;93.10;;;;;;4793516;29;20034;-77
2023/11/21 02:18:53;;;;;;;2.08;1.25;;;8.10;93.10;;;;;;4824867;29;20497;-77
2023/11/21 02:21:20;;;;;;;2.25;1.30;;;8.10;93.10;;;;;;4808318;29;20057;-77
2023/11/21 02:23:46;;;;;;;2.65;1.05;;;8.10;93.10;;;;;;4808165;29;20050;-77
2023/11/21 02:26:13;;;;;;;2.83;1.30;;;8.10;93.10;;;;;;4807149;29;20038;-77
2023/11/21 02:28:40;;;;;;;2.65;1.35;;;8.10;93.10;;;;;;4808363;29;20053;-78
2023/11/21 02:31:07;;;;;;;1.33;0.93;;;8.10;93.10;;;;;;4793945;29;20031;-77
2023/11/21 02:33:33;;;;;;;1.88;1.15;;;8.10;93.10;;;;;;4824838;29;20053;-78
2023/11/21 02:36:00;;;;;;;2.05;1.30;;;8.10;93.10;;;;;;4824925;29;20053;-77
2023/11/21 02:38:26;;;;;;;2.08;1.30;;;8.10;93.10;;;;;;4808147;29;20088;-77
2023/11/21 02:40:52;;;;;;;2.25;1.13;;;8.10;93.20;;;;;;4824661;29;20069;-77
2023/11/21 02:43:17;;;;;;;1.80;1.13;;;8.20;93.20;;;;;;4792202;29;20047;-77
2023/11/21 02:45:43;;;;;;;2.88;1.10;;;8.10;93.20;;;;;;4808465;29;20034;-77
2023/11/21 02:48:09;;;;;;;2.28;1.30;;;8.20;93.20;;;;;;4793065;29;20095;-77
2023/11/21 02:50:35;;;;;;;2.70;1.30;;;8.20;93.20;;;;;;4777510;29;20030;-77
2023/11/21 02:53:01;;;;;;;3.35;1.50;;;8.20;93.20;;;;;;4824936;29;20220;-77
2023/11/21 02:55:27;;;;;;;1.95;1.23;;;8.20;93.20;;;;;;4824462;29;20049;-77
2023/11/21 02:57:56;;;;;;;3.90;1.40;;;8.20;93.20;;;;;;4823903;29;20042;-77
2023/11/21 03:00:24;;;;;;;3.33;1.40;;;8.20;93.20;;;;;;4791492;29;20495;-77
2023/11/21 03:02:50;;;;;;;2.30;1.23;;;8.30;93.20;;;;;;4792993;29;20058;-77
2023/11/21 03:05:15;;;;;;;3.20;1.50;;;8.20;93.20;;;;;;4824471;29;20551;-77
2023/11/21 03:07:41;;;;;;;3.28;1.63;;;8.20;93.20;;;;;;4792362;29;20049;-77
2023/11/21 03:10:10;;;;;;;2.53;1.50;;;8.20;93.20;;;;;;4791757;29;20043;-77
2023/11/21 03:12:37;;;;;;;2.85;1.67;;;8.30;93.20;;;;;;4807716;29;20046;-77
2023/11/21 03:15:05;;;;;;;3.42;1.83;;;8.20;93.20;;;;;;4792936;29;20074;-77
2023/11/21 03:17:34;;;;;;;3.25;1.67;;;8.20;93.20;;;;;;4792230;29;20510;-77
2023/11/21 03:20:00;;;;;;;3.72;1.73;;;8.30;93.20;;;;;;4808182;29;20030;-77
2023/11/21 03:22:26;;;;;;;2.90;1.50;;;8.20;93.20;;;;;;4808032;29;20080;-77
2023/11/21 03:24:53;;;;;;;2.88;1.30;;;8.20;93.20;;;;;;4824043;29;20066;-77
2023/11/21 03:27:19;;;;;;;4.13;1.50;;;8.20;93.20;;;;;;4823952;29;20875;-77
2023/11/21 03:29:46;;;;;;;3.85;1.63;;;8.20;93.20;;;;;;4808219;29;20117;-77
2023/11/21 03:32:12;;;;;;;3.03;1.60;;;8.20;93.30;;;;;;4823615;29;20050;-77
2023/11/21 03:34:57;;;;;;;4.18;1.85;;;8.30;93.30;;;;;;4807939;29;20047;-77
2023/11/21 03:37:24;;;;;;;3.83;1.85;;;8.20;93.30;;;;;;4823922;29;20075;-77
2023/11/21 03:39:50;;;;;;;2.95;1.45;;;8.10;93.20;;;;;;4823780;29;20452;-77
2023/11/21 03:42:16;;;;;;;2.22;1.40;;;8.20;93.30;;;;;;4806316;29;20062;-77
2023/11/21 03:44:42;;;;;;;1.90;1.05;;;8.20;93.30;;;;;;4806644;29;20601;-77
2023/11/21 03:47:08;;;;;;;1.73;1.08;;;8.10;93.30;;;;;;4807125;29;20038;-77
2023/11/21 03:49:33;;;;;;;4.35;1.75;;;8.10;93.30;;;;;;4792240;29;20455;-77
2023/11/21 03:51:59;;;;;;;3.30;1.45;;;8.10;93.30;;;;;;4823695;29;20042;-77
2023/11/21 03:54:25;;;;;;;2.03;1.20;;;8.10;93.40;;;;;;4792021;29;20122;-77
2023/11/21 03:56:52;;;;;;;2.78;1.30;;;8.20;93.40;;;;;;4824112;29;20031;-77
2023/11/21 03:59:17;;;;;;;2.00;1.25;;;8.10;93.30;;;;;;4807014;29;20034;-77
2023/11/21 04:01:43;;;;;;;1.73;0.95;;;8.10;93.40;;;;;;4806070;29;20049;-77
2023/11/21 04:04:09;;;;;;;1.90;1.25;;;8.10;93.40;;;;;;4823261;29;20058;-77
2023/11/21 04:06:35;;;;;;;1.90;1.10;;;8.10;93.40;;;;;;4823832;29;20046;-77
2023/11/21 04:09:04;;;;;;;1.92;1.10;;;8.10;93.40;;;;;;4807260;29;20406;-77
2023/11/21 04:11:30;;;;;;;1.48;0.90;;;8.10;93.40;;;;;;4775883;29;20129;-77
2023/11/21 04:13:56;;;;;;;1.15;0.82;;;8.00;93.40;;;;;;4776741;29;20490;-77
2023/11/21 04:16:22;;;;;;;2.17;1.17;;;8.10;93.50;;;;;;4823610;29;20099;-77
2023/11/21 04:18:48;;;;;;;2.13;1.30;;;8.00;93.40;;;;;;4806740;29;20046;-77
2023/11/21 04:21:14;;;;;;;2.25;1.30;;;8.00;93.50;;;;;;4787339;29;20039;-77
2023/11/21 04:23:40;;;;;;;3.42;1.40;;;8.10;93.50;;;;;;4823083;29;20064;-77
2023/11/21 04:26:06;;;;;;;1.98;1.13;;;8.00;93.50;;;;;;4806202;29;20038;-77
2023/11/21 04:28:32;;;;;;;2.70;1.40;;;8.00;93.50;;;;;;4823457;29;20064;-77
2023/11/21 04:30:57;;;;;;;2.22;1.42;;;8.10;93.50;;;;;;4806384;29;20125;-77
2023/11/21 04:33:23;;;;;;;2.38;1.27;;;8.00;93.50;;;;;;4807318;29;20042;-77
2023/11/21 04:35:49;;;;;;;1.92;1.20;;;8.00;93.50;;;;;;4822928;29;20047;-77
2023/11/21 04:38:15;;;;;;;3.83;1.77;;;8.00;93.50;;;;;;4823060;29;20525;-77
2023/11/21 04:40:40;;;;;;;2.13;1.30;;;8.00;93.50;;;;;;4806608;29;21383;-77
2023/11/21 04:43:06;;;;;;;1.95;1.23;;;8.00;93.50;;;;;;4806754;29;20054;-77
2023/11/21 04:45:32;;;;;;;3.17;1.20;;;8.00;93.50;;;;;;4806534;29;20041;-78
2023/11/21 04:47:58;;;;;;;2.30;1.27;;;8.10;93.50;;;;;;4806307;29;20099;-77
2023/11/21 04:50:25;;;;;;;2.50;1.40;;;8.00;93.50;;;;;;4806118;29;20175;-77
2023/11/21 04:52:51;;;;;;;1.98;1.20;;;8.10;93.50;;;;;;4822652;29;20058;-77
2023/11/21 04:55:16;;;;;;;1.50;0.85;;;8.00;93.50;;;;;;4788480;29;20153;-77
2023/11/21 04:57:42;;;;;;;2.03;1.20;;;8.00;93.50;;;;;;4806785;29;20061;-77
2023/11/21 05:00:09;;;;;;;2.50;1.17;;;8.10;93.50;;;;;;4791143;29;20451;-77
2023/11/21 05:02:35;;;;;;;3.15;1.30;;;8.10;93.50;;;;;;4791526;29;20050;-77
2023/11/21 05:05:02;;;;;;;2.10;1.17;;;8.10;93.50;;;;;;4823336;29;20035;-77
2023/11/21 05:07:28;;;;;;;2.00;1.27;;;8.10;93.50;;;;;;4790764;29;20042;-77
2023/11/21 05:09:55;;;;;;;1.60;1.13;;;8.10;93.50;;;;;;4806445;29;20045;-77
2023/11/21 05:12:23;;;;;;;2.45;1.40;;;8.10;93.50;;;;;;4806652;29;20089;-78
2023/11/21 05:14:49;;;;;;;2.65;1.25;;;8.20;93.50;;;;;;4806244;29;20398;-77
2023/11/21 05:17:15;;;;;;;2.30;1.20;;;8.10;93.50;;;;;;4822861;29;20043;-77
2023/11/21 05:19:41;;;;;;;2.75;1.08;;;8.10;93.50;;;;;;4805712;29;20054;-77
2023/11/21 05:22:08;;;;;;;2.03;1.30;;;8.20;93.50;;;;;;4822713;29;20058;-78
2023/11/21 05:24:34;;;;;;;2.38;1.20;;;8.20;93.50;;;;;;4806076;29;20431;-78
2023/11/21 05:27:00;;;;;;;1.80;1.15;;;8.20;93.50;;;;;;4806238;29;20035;-78
2023/11/21 05:29:26;;;;;;;3.05;1.33;;;8.20;93.50;;;;;;4791526;29;20049;-78
2023/11/21 05:31:52;;;;;;;2.72;1.42;;;8.20;93.50;;;;;;4806436;29;20049;-77
2023/11/21 05:34:20;;;;;;;2.70;1.63;;;8.20;93.50;;;;;;4804952;29;20455;-78
2023/11/21 05:36:46;;;;;;;2.15;1.40;;;8.20;93.50;;;;;;4789966;29;20510;-77
2023/11/21 05:39:12;;;;;;;1.70;1.23;;;8.20;93.50;;;;;;4806180;29;20034;-77
2023/11/21 05:41:38;;;;;;;2.45;1.58;;;8.20;93.50;;;;;;4822468;29;20851;-77
2023/11/21 05:44:03;;;;;;;2.05;1.45;;;8.10;93.50;;;;;;4788457;29;20059;-78
2023/11/21 05:46:29;;;;;;;1.70;1.00;;;8.20;93.50;;;;;;4790971;29;20201;-77
2023/11/21 05:48:55;;;;;;;1.58;1.00;;;8.20;93.50;;;;;;4790961;29;20046;-77
2023/11/21 05:51:21;;;;;;;3.45;1.42;;;8.20;93.50;;;;;;4790901;29;20122;-78
2023/11/21 05:53:46;;;;;;;1.85;1.15;;;8.20;93.50;;;;;;4806089;29;20505;-78
2023/11/21 05:56:13;;;;;;;2.50;1.40;;;8.20;93.50;;;;;;4805646;29;20050;-78
2023/11/21 05:58:39;;;;;;;1.60;1.00;;;8.30;93.50;;;;;;4805810;29;20047;-78
2023/11/21 06:01:08;;;;;;;2.63;1.10;;;8.40;93.50;;;;;;4775929;29;20041;-78
2023/11/21 06:03:35;;;;;;;1.85;1.20;;;8.30;93.50;;;;;;4790556;29;20124;-78
2023/11/21 06:06:00;;;;;;;2.00;1.30;;;8.40;93.50;;;;;;4821824;29;20054;-78
2023/11/21 06:08:26;;;;;;;1.92;1.10;;;8.40;93.50;;;;;;4822283;29;20038;-78
2023/11/21 06:25:36;;;;;;;1.88;1.10;;;8.40;93.40;;;;;;4661235;30;20132;-77
2023/11/21 06:28:02;;;;;;;2.08;1.23;;;8.40;93.40;;;;;;4661879;30;20504;-77
2023/11/21 06:30:28;;;;;;;3.13;1.50;;;8.40;93.40;;;;;;4661737;30;20050;-77
2023/11/21 06:32:55;;;;;;;2.22;1.30;;;8.40;93.40;;;;;;4664922;30;20215;-76
2023/11/21 06:35:22;;;;;;;3.15;1.55;;;8.40;93.40;;;;;;4667681;30;20103;-77
2023/11/21 06:37:48;;;;;;;4.07;1.90;;;8.40;93.40;;;;;;4676513;30;20043;-76
2023/11/21 06:40:15;;;;;;;4.10;1.80;;;8.50;93.40;;;;;;4667519;30;20408;-77
2023/11/21 06:42:41;;;;;;;5.22;2.25;;;8.50;93.40;;;;;;4668153;30;20057;-77
2023/11/21 06:45:07;;;;;;;2.88;1.58;;;8.50;93.40;;;;;;4668662;30;20046;-77
2023/11/21 06:47:33;;;;;;;3.88;1.70;;;8.50;93.40;;;;;;4653831;30;20035;-77
2023/11/21 06:50:00;;;;;;;2.50;1.50;;;8.40;93.40;;;;;;4663940;30;20050;-77
2023/11/21 06:52:26;;;;;;;3.35;1.83;;;8.40;93.40;;;;;;4651669;30;20082;-77
2023/11/21 06:54:51;;;;;;;2.75;1.45;;;8.50;93.40;;;;;;4657118;30;20054;-77
2023/11/21 06:57:17;;;;;;;3.42;1.67;;;8.50;93.40;;;;;;4737982;30;20037;-77
2023/11/21 06:59:43;;;;;;;2.72;1.50;;;8.50;93.50;;;;;;4722720;30;20045;-77
2023/11/21 07:02:09;;;;;;;3.30;1.45;;;8.50;93.50;;;;;;4806417;29;20107;-76
2023/11/21 07:04:35;;;;;;;3.42;1.58;;;8.50;93.50;;;;;;4826990;29;20038;-77
2023/11/21 07:07:02;;;;;;;2.55;1.70;;;8.50;93.50;;;;;;4826634;29;20071;-77
2023/11/21 07:09:29;;;;;;;3.97;1.80;;;8.50;93.50;;;;;;4825747;29;20038;-77
2023/11/21 07:11:55;;;;;;;2.40;1.10;;;8.60;93.50;;;;;;4827567;29;20075;-77
2023/11/21 07:14:21;;;;;;;3.13;1.52;;;8.60;93.50;;;;;;4826050;29;20050;-78
2023/11/21 07:16:47;;;;;;;2.33;1.20;;;8.60;93.50;;;;;;4794504;29;20034;-79
2023/11/21 07:19:13;;;;;;;2.50;1.35;;;8.60;93.50;;;;;;4809547;29;20483;-78
2023/11/21 07:21:40;;;;;;;3.25;1.70;;;8.60;93.50;;;;;;4826207;29;20038;-77
2023/11/21 07:24:06;;;;;;;2.38;1.50;;;8.60;93.50;;;;;;4799458;29;20050;-77
2023/11/21 07:26:33;;;;;;;2.70;1.63;;;8.60;93.50;;;;;;4802190;29;20047;-77
2023/11/21 07:29:00;;;;;;;3.35;1.60;;;8.70;93.50;;;;;;4793215;29;20046;-78
2023/11/21 07:31:26;;;;;;;2.38;1.45;;;8.70;93.50;;;;;;4798232;29;20054;-77
2023/11/21 07:33:52;;;;;;;2.72;1.38;;;8.70;93.50;;;;;;4835025;29;20509;-77
2023/11/21 07:36:19;;;;;;;2.17;1.33;;;8.70;93.50;;;;;;4801148;29;20081;-77
2023/11/21 07:38:45;;;;;;;2.15;1.30;;;8.70;93.50;;;;;;4814815;29;20404;-77
2023/11/21 07:41:11;;;;;;;2.78;1.55;;;8.70;93.50;;;;;;4799745;29;20035;-77
2023/11/21 07:43:37;;;;;;;2.75;1.52;;;8.70;93.50;;;;;;4800372;29;20051;-77
2023/11/21 07:46:04;;;;;;;3.08;1.50;;;8.70;93.50;;;;;;4812598;29;20065;-77
2023/11/21 07:48:31;;;;;;;3.15;1.38;;;8.80;93.50;;;;;;4831336;29;20462;-77
2023/11/21 07:50:59;;;;;;;3.95;1.40;;;8.80;93.50;;;;;;4814223;29;20045;-78
2023/11/21 07:53:25;;;;;;;3.33;1.70;;;8.80;93.50;;;;;;4795240;29;20130;-77
2023/11/21 07:55:52;;;;;;;2.95;1.60;;;8.80;93.50;;;;;;4830442;29;20039;-77
2023/11/21 07:58:18;;;;;;;2.65;1.52;;;8.80;93.50;;;;;;4830609;29;20129;-77
2023/11/21 08:00:44;;;;;;;3.35;1.73;;;8.90;93.50;;;;;;4830873;29;20482;-77
2023/11/21 08:03:11;;;;;;;3.20;1.88;;;8.90;93.50;;;;;;4829027;29;20186;-77
2023/11/21 08:05:37;;;;;;;3.70;1.63;;;8.90;93.50;;;;;;4793996;29;20398;-78
2023/11/21 08:08:02;;;;;;;3.60;1.90;;;8.90;93.60;;;;;;4812405;29;20045;-77
2023/11/21 08:10:29;;;;;;;3.80;1.90;;;8.90;93.50;;;;;;4830005;29;20062;-77
2023/11/21 08:12:55;;;;;;;3.05;1.70;;;8.90;93.50;;;;;;4798147;29;20087;-78
2023/11/21 08:15:20;;;;;;;2.80;1.60;;;9.00;93.40;;;;;;4813561;29;20034;-77
2023/11/21 08:17:47;;;;;;;2.30;1.35;;;9.00;93.70;;;;;;4830771;29;20834;-77
2023/11/21 08:20:15;;;;;;;2.13;1.30;;;9.10;93.40;;;;;;4815991;29;20629;-77
2023/11/21 08:22:42;;;;;;;2.65;1.50;;;9.00;93.40;;;;;;4815989;29;20100;-77
2023/11/21 08:25:08;;;;;;;5.13;2.20;;;9.10;93.40;;;;;;4797083;29;20047;-77
2023/11/21 08:27:34;;;;;;;4.85;1.80;;;9.10;93.40;;;;;;4830512;29;20472;-77
2023/11/21 08:30:01;;;;;;;2.28;1.40;;;9.00;93.40;;;;;;4813364;29;20069;-77
2023/11/21 08:32:27;;;;;;;3.78;1.67;;;9.10;93.40;;;;;;4829231;29;20072;-77
2023/11/21 08:34:52;;;;;;;2.97;1.63;;;9.20;93.40;;;;;;4829063;29;20038;-77
2023/11/21 08:37:18;;;;;;;2.85;1.60;;;9.10;93.40;;;;;;4827582;29;20046;-77
2023/11/21 08:39:44;;;;;;;3.58;1.60;;;9.20;93.40;;;;;;4780866;29;20042;-77
2023/11/21 08:42:10;;;;;;;2.90;1.40;;;9.20;93.40;;;;;;4811896;29;20552;-77
2023/11/21 08:44:36;;;;;;;3.78;1.77;;;9.20;93.40;;;;;;4813325;29;20066;-77
2023/11/21 08:47:02;;;;;;;1.77;1.42;;;9.20;93.40;;;;;;4814206;29;20034;-77
2023/11/21 08:49:29;;;;;;;2.92;1.60;;;9.30;93.40;;;;;;4813675;29;20038;-77
2023/11/21 08:51:57;;;;;;;3.80;1.65;;;9.20;93.40;;;;;;4813372;29;20053;-77
2023/11/21 08:54:23;;;;;;;3.35;1.92;;;9.30;93.40;;;;;;4830257;29;20075;-77
2023/11/21 08:56:50;;;;;;;2.80;1.60;;;9.30;93.40;;;;;;4829937;29;20050;-77
2023/11/21 08:59:16;;;;;;;3.47;1.67;;;9.40;93.40;;;;;;4813479;29;20035;-77
2023/11/21 09:01:42;;;;;;;2.45;1.48;;;9.40;93.40;;;;;;4812501;29;20074;-78
2023/11/21 09:04:08;;;;;;;2.72;1.70;;;9.40;93.40;;;;;;4813757;29;20047;-77
2023/11/21 09:06:33;;;;;;;2.95;1.60;;;9.50;93.40;;;;;;4812830;29;20061;-78
2023/11/21 09:08:59;;;;;;;3.60;1.80;;;9.50;93.40;;;;;;4797077;29;20042;-78
2023/11/21 09:11:27;;;;;;;3.47;1.75;;;9.50;93.30;;;;;;4829977;29;20038;-78
2023/11/21 09:13:52;;;;;;;3.58;1.60;;;9.50;93.40;;;;;;4797667;29;20051;-77
2023/11/21 09:16:18;;;;;;;3.22;1.63;;;9.40;93.40;;;;;;4812125;29;20057;-77
2023/11/21 09:18:45;;;;;;;4.03;1.80;;;9.50;93.50;;;;;;4795638;29;20114;-77
2023/11/21 09:21:11;;;;;;;3.33;1.75;;;9.50;93.50;;;;;;4812394;29;20046;-78
2023/11/21 09:23:36;;;;;;;4.35;2.00;;;9.50;93.40;;;;;;4829883;29;20042;-78
2023/11/21 09:26:02;;;;;;;3.13;1.60;;;9.50;93.40;;;;;;4798941;29;20062;-77
2023/11/21 09:28:28;;;;;;;4.07;1.73;;;9.60;93.40;;;;;;4796295;29;20054;-77
2023/11/21 09:30:54;;;;;;;4.70;1.80;;;9.60;93.40;;;;;;4814557;29;20038;-77
2023/11/21 09:33:20;;;;;;;3.22;1.52;;;9.60;93.40;;;;;;4829981;29;20514;-77
2023/11/21 09:35:47;;;;;;;3.60;1.77;;;9.60;93.70;;;;;;4813136;29;20095;-77
2023/11/21 09:38:13;;;;;;;3.80;1.65;;;9.60;93.50;;;;;;4798032;29;20054;-77
2023/11/21 09:40:39;;;;;;;3.70;1.58;;;9.60;93.50;;;;;;4830029;29;20482;-77
2023/11/21 09:43:08;;;;;;;3.80;1.88;;;9.60;93.50;;;;;;4796284;29;20047;-77
2023/11/21 09:45:38;;;;;;;3.22;1.67;;;9.60;93.50;;;;;;4797980;29;20405;-77
2023/11/21 09:48:06;;;;;;;3.53;1.70;;;9.60;93.50;;;;;;4797293;29;20041;-78
2023/11/21 09:50:33;;;;;;;3.85;2.00;;;9.60;93.50;;;;;;4829473;29;20038;-77
2023/11/21 09:53:20;;;;;;;5.45;2.17;;;9.70;93.50;;;;;;4829623;29;20046;-78
2023/11/21 09:55:48;;;;;;;4.38;2.13;;;9.80;93.50;;;;;;4782373;29;20046;-77
2023/11/21 09:58:14;;;;;;;4.03;1.80;;;9.80;93.40;;;;;;4812001;29;20066;-77
2023/11/21 10:00:42;;;;;;;5.32;2.30;;;9.80;93.40;;;;;;4812895;29;20070;-77
2023/11/21 10:03:08;;;;;;;4.40;2.10;;;9.80;93.40;;;;;;4812554;29;20054;-77
2023/11/21 10:05:35;;;;;;;5.43;2.22;;;9.80;93.40;;;;;;4783172;29;20070;-77
2023/11/21 10:08:01;;;;;;;3.60;1.88;;;9.90;93.40;;;;;;4828933;29;20083;-77
2023/11/21 10:10:29;;;;;;;3.50;1.80;;;9.90;93.40;;;;;;4815278;29;20042;-77
2023/11/21 10:12:56;;;;;;;2.88;1.60;;;10.00;93.40;;;;;;4815894;29;20133;-78
2023/11/21 10:15:25;;;;;;;3.80;1.52;;;10.00;93.40;;;;;;4832182;29;20110;-77
2023/11/21 10:17:53;;;;;;;4.15;2.10;;;10.10;93.40;;;;;;4832268;29;20053;-78
2023/11/21 10:20:20;;;;;;;5.90;1.98;;;10.10;93.30;;;;;;4802132;29;20096;-77
2023/11/21 10:22:46;;;;;;;3.60;1.83;;;10.20;93.30;;;;;;4832115;29;20099;-77
2023/11/21 10:25:14;;;;;;;3.60;2.00;;;10.30;93.30;;;;;;4783867;29;20429;-77
2023/11/21 10:27:41;;;;;;;3.95;1.85;;;10.30;93.30;;;;;;4832926;29;20069;-77
2023/11/21 10:30:11;;;;;;;3.70;1.80;;;10.40;93.20;;;;;;4814898;29;20465;-78
2023/11/21 10:32:40;;;;;;;3.63;1.73;;;10.50;93.20;;;;;;4801545;29;20050;-77
2023/11/21 10:35:09;;;;;;;3.97;1.90;;;10.50;93.20;;;;;;4798028;29;20170;-77
2023/11/21 10:37:39;;;;;;;3.22;1.70;;;10.50;93.10;;;;;;4815185;29;20053;-77
2023/11/21 10:40:11;;;;;;;3.35;1.55;;;10.50;93.10;;;;;;4829851;29;20842;-77
2023/11/21 10:42:39;;;;;;;3.45;1.77;;;10.60;93.20;;;;;;4813502;29;20100;-77
2023/11/21 10:45:14;;;;;;;4.30;1.90;;;10.60;93.10;;;;;;4828849;29;20043;-77
2023/11/21 10:47:41;;;;;;;3.10;1.92;;;10.70;93.10;;;;;;4811346;29;20064;-77
2023/11/21 10:50:10;;;;;;;3.67;1.85;;;10.70;93.10;;;;;;4828067;29;20109;-78
2023/11/21 10:52:39;;;;;;;4.07;1.83;;;10.80;93.10;;;;;;4811481;29;20122;-77
2023/11/21 10:55:18;;;;;;;4.25;1.92;;;10.70;93.10;;;;;;4828455;29;20502;-78
2023/11/21 10:57:48;;;;;;;3.33;1.70;;;10.80;93.10;;;;;;4828422;29;20056;-78
2023/11/21 11:00:16;;;;;;;3.03;1.70;;;10.80;93.10;;;;;;4827388;29;20043;-77
2023/11/21 11:02:43;;;;;;;3.03;1.50;;;10.70;93.10;;;;;;4811298;29;20081;-77
2023/11/21 11:05:11;;;;;;;3.42;1.65;;;10.80;93.20;;;;;;4811852;29;20038;-77
2023/11/21 11:07:42;;;;;;;3.40;1.63;;;10.80;93.20;;;;;;4782514;29;20038;-77
2023/11/21 11:10:14;;;;;;;;;;;10.70;93.20;;;;;;4812634;29;20043;-78
2023/11/21 11:12:40;;;;;;;1.92;1.15;;;10.80;93.20;;;;;;4813107;29;19915;-77
2023/11/21 11:15:09;;;;;;;2.15;1.30;;;10.70;93.20;;;;;;4810422;29;20385;-77
2023/11/21 11:17:38;;;;;;;2.72;1.50;;;10.70;93.20;;;;;;4812823;29;20103;-77
2023/11/21 11:20:09;;;;;;;2.10;1.25;;;10.70;93.30;;;;;;4810562;29;20127;-77
2023/11/21 11:23:02;;;;;;;3.30;1.50;;;10.70;93.30;;;;;;4827895;29;20065;-77
2023/11/21 11:25:59;;;;;;;3.42;1.40;;;10.70;93.30;;;;;;4808638;29;20047;-77
2023/11/21 11:28:43;;;;;;;3.67;1.42;;;10.70;93.30;;;;;;4826566;29;20862;-77
2023/11/21 11:31:47;;;;;;;2.60;1.42;;;10.60;93.30;;;;;;4810531;29;20061;-77
2023/11/21 11:34:29;;;;;;;2.80;1.30;;;10.60;93.30;;;;;;4825436;29;20034;-77
2023/11/21 11:37:08;;;;;;;2.30;1.23;;;10.60;93.30;;;;;;4825210;29;20044;-77
2023/11/21 11:39:43;;;;;;;3.55;1.50;;;10.60;93.30;;;;;;4810178;29;20034;-77
2023/11/21 11:42:13;;;;;;;2.72;1.55;;;10.40;93.40;;;;;;4824952;29;20039;-77
2023/11/21 11:44:52;;;;;;;2.92;1.60;;;10.50;93.40;;;;;;4793436;29;20077;-77
2023/11/21 11:47:32;;;;;;;2.22;1.27;;;10.50;93.50;;;;;;4808830;29;20763;-77
2023/11/21 11:50:08;;;;;;;2.80;1.38;;;10.50;93.50;;;;;;4807704;29;20043;-77
2023/11/21 11:52:43;;;;;;;2.75;1.40;;;10.50;93.40;;;;;;4778726;29;20106;-77
2023/11/21 11:55:11;;;;;;;2.78;1.50;;;10.60;93.40;;;;;;4807371;29;20085;-77
2023/11/21 11:57:38;;;;;;;3.53;1.50;;;10.50;93.40;;;;;;4824124;29;20053;-77
2023/11/21 12:00:16;;;;;;;2.30;1.30;;;10.50;93.40;;;;;;4825358;29;20050;-77
2023/11/21 12:02:44;;;;;;;2.10;1.30;;;10.50;93.40;;;;;;4824659;29;20035;-77
2023/11/21 12:05:13;;;;;;;2.05;1.20;;;10.50;93.40;;;;;;4808171;29;20095;-77
2023/11/21 12:07:54;;;;;;;1.77;1.10;;;10.60;93.40;;;;;;4823981;29;21358;-77
2023/11/21 12:10:24;;;;;;;2.03;1.20;;;10.60;93.40;;;;;;4824264;29;20039;-77
2023/11/21 12:12:52;;;;;;;2.22;1.20;;;10.60;93.40;;;;;;4824387;29;20087;-77
2023/11/21 12:15:19;;;;;;;3.22;1.40;;;10.60;93.40;;;;;;4824050;29;20050;-77
2023/11/21 12:17:47;;;;;;;2.10;1.17;;;10.60;93.30;;;;;;4824341;29;20050;-77
2023/11/21 12:20:14;;;;;;;1.85;1.27;;;10.60;93.40;;;;;;4824500;29;20456;-77
2023/11/21 12:22:43;;;;;;;2.45;1.23;;;10.70;93.40;;;;;;4807357;29;20047;-77
2023/11/21 12:25:08;;;;;;;2.67;1.50;;;10.70;93.50;;;;;;4792563;29;20044;-77
2023/11/21 12:27:35;;;;;;;3.78;1.60;;;10.60;93.30;;;;;;4824407;29;20031;-77
2023/11/21 12:30:00;;;;;;;3.00;1.30;;;10.70;93.30;;;;;;4824536;29;20034;-77
2023/11/21 12:32:26;;;;;;;1.65;1.13;;;10.70;93.30;;;;;;4824087;29;20045;-77
2023/11/21 12:34:52;;;;;;;2.72;1.30;;;10.70;93.30;;;;;;4793125;29;20134;-77
2023/11/21 12:37:18;;;;;;;2.42;1.10;;;10.70;93.30;;;;;;4807466;29;20066;-77
2023/11/21 12:39:44;;;;;;;1.52;1.08;;;10.70;93.30;;;;;;4807170;29;20106;-77
2023/11/21 12:42:10;;;;;;;2.05;1.20;;;10.70;93.30;;;;;;4807464;29;20039;-78
2023/11/21 12:44:37;;;;;;;2.70;1.45;;;10.70;93.30;;;;;;4823436;29;20494;-77
2023/11/21 12:47:03;;;;;;;2.67;1.27;;;10.60;93.40;;;;;;4823403;29;20057;-77
2023/11/21 12:49:29;;;;;;;3.28;1.40;;;10.70;93.30;;;;;;4807532;29;20039;-77
2023/11/21 12:51:54;;;;;;;2.20;1.38;;;10.70;93.40;;;;;;4823827;29;20030;-77
2023/11/21 12:54:21;;;;;;;3.67;1.40;;;10.70;93.40;;;;;;4776789;29;20191;-77
2023/11/21 12:56:47;;;;;;;3.28;1.40;;;10.70;93.30;;;;;;4806543;29;20102;-77
2023/11/21 12:59:14;;;;;;;2.72;1.40;;;10.70;93.30;;;;;;4823264;29;20042;-77
2023/11/21 13:01:42;;;;;;;2.40;1.15;;;10.70;93.30;;;;;;4807439;29;20049;-77
2023/11/21 13:04:10;;;;;;;2.67;1.33;;;10.70;93.30;;;;;;4791617;29;20046;-77
2023/11/21 13:06:40;;;;;;;3.63;1.48;;;10.70;93.40;;;;;;4823250;29;20038;-77
2023/11/21 13:09:10;;;;;;;3.38;1.58;;;10.60;93.30;;;;;;4823005;29;20052;-77
2023/11/21 13:11:37;;;;;;;1.90;1.30;;;10.60;93.30;;;;;;4790599;29;20034;-78
2023/11/21 13:14:03;;;;;;;3.00;1.60;;;10.60;93.40;;;;;;4823181;29;20047;-76
2023/11/21 13:16:30;;;;;;;2.15;1.38;;;10.60;93.40;;;;;;4791343;29;20034;-77